Time;durP1;ratioP1;P1;durP2;ratioP2;P2;SDS_P1;SDS_P2;PMS_P1;PMS_P2;Temp;Humidity;BMP_temperature;BMP_pressure;BME280_temperature;BME280_humidity;BME280_pressure;Samples;Min_cycle;Max_cycle;Signal;HPM_P1;HPM_P2
2022/01/03 00:02:22;;;;;;;8.70;5.10;;;;;;;3.45;63.02;100585.36;117260;1187;21865;-86
2022/01/03 00:04:51;;;;;;;8.40;5.10;;;;;;;3.44;63.03;100565.56;117330;1179;23460;-86
2022/01/03 00:07:19;;;;;;;8.40;5.40;;;;;;;3.42;63.07;100547.67;117371;1184;23667;-86
2022/01/03 00:09:50;;;;;;;7.20;4.80;;;;;;;3.42;63.12;100542.10;117280;1186;23554;-86
2022/01/03 00:12:38;;;;;;;6.50;4.10;;;;;;;3.42;63.10;100539.17;117164;1186;21857;-86
2022/01/03 00:15:10;;;;;;;7.80;4.30;;;;;;;3.46;63.16;100520.67;117289;1186;21931;-85
2022/01/03 00:17:38;;;;;;;6.80;4.30;;;;;;;3.51;63.33;100520.24;117431;1186;23480;-85
2022/01/03 00:20:27;;;;;;;6.40;3.70;;;;;;;3.59;63.28;100504.06;117188;1187;23640;-86
2022/01/03 00:23:02;;;;;;;6.20;3.30;;;;;;;3.66;63.30;100491.71;117014;1187;23539;-84
2022/01/03 00:25:30;;;;;;;5.80;3.30;;;;;;;3.74;63.20;100482.13;117180;1188;22063;-85
2022/01/03 00:28:03;;;;;;;6.00;3.40;;;;;;;3.82;63.42;100482.08;117142;1179;23447;-86
2022/01/03 00:30:37;;;;;;;6.30;3.30;;;;;;;3.89;63.48;100490.88;117157;1184;23541;-85
2022/01/03 00:33:06;;;;;;;5.00;3.10;;;;;;;3.96;63.50;100496.56;117197;1188;22907;-86
2022/01/03 00:35:38;;;;;;;3.90;2.40;;;;;;;3.98;63.46;100488.09;117443;1183;23537;-86
2022/01/03 00:38:07;;;;;;;6.30;2.80;;;;;;;4.01;63.39;100494.55;117441;1186;22905;-85
2022/01/03 00:40:35;;;;;;;6.50;2.50;;;;;;;4.03;63.27;100495.29;117267;1186;21842;-86
2022/01/03 00:43:04;;;;;;;4.40;2.80;;;;;;;4.09;63.38;100490.52;117337;1187;22180;-85
2022/01/03 00:45:34;;;;;;;4.10;2.30;;;;;;;4.13;63.30;100490.06;117418;1182;22752;-85
2022/01/03 00:48:09;;;;;;;4.80;2.40;;;;;;;4.16;63.30;100477.95;117269;1187;21878;-86
2022/01/03 00:50:37;;;;;;;4.80;2.30;;;;;;;4.20;63.32;100479.58;117491;1186;22296;-86
2022/01/03 00:53:05;;;;;;;3.80;2.00;;;;;;;4.21;63.33;100476.11;117441;1186;21861;-86
2022/01/03 00:55:33;;;;;;;4.50;2.30;;;;;;;4.23;63.29;100464.50;117303;1187;21865;-85
2022/01/03 00:58:09;;;;;;;4.20;2.40;;;;;;;4.24;63.18;100443.85;117313;1186;21845;-86
2022/01/03 01:00:40;;;;;;;5.70;2.70;;;;;;;4.24;63.25;100445.06;117502;1179;23958;-86
2022/01/03 01:03:12;;;;;;;4.50;2.30;;;;;;;4.25;63.30;100446.80;117478;1184;23593;-86
2022/01/03 01:05:45;;;;;;;5.30;2.70;;;;;;;4.22;63.28;100438.27;117339;1186;22935;-86
2022/01/03 01:08:21;;;;;;;4.80;2.40;;;;;;;4.23;63.23;100444.18;117280;1187;21858;-88
2022/01/03 01:10:52;;;;;;;4.10;2.10;;;;;;;4.23;63.18;100441.05;117227;1187;21858;-86
2022/01/03 01:13:42;;;;;;;4.60;2.30;;;;;;;4.24;63.27;100435.48;117364;1187;21881;-85
2022/01/03 01:16:10;;;;;;;4.50;2.50;;;;;;;4.24;63.46;100432.20;117315;1186;21851;-86
2022/01/03 01:18:38;;;;;;;4.40;2.30;;;;;;;4.24;63.45;100433.08;117331;1182;22650;-86
2022/01/03 01:21:07;;;;;;;5.00;2.40;;;;;;;4.25;63.44;100424.58;117305;1187;23599;-86
2022/01/03 01:23:39;;;;;;;4.20;2.20;;;;;;;4.26;63.48;100403.04;117232;1184;23541;-86
2022/01/03 01:28:55;;;;;;;4.60;2.20;;;;;;;4.29;63.27;100371.30;117474;1185;22922;-86
2022/01/03 01:31:24;;;;;;;4.90;3.00;;;;;;;4.30;63.40;100375.48;117502;1185;23547;-84
2022/01/03 01:33:56;;;;;;;4.00;2.40;;;;;;;4.33;63.46;100371.17;117463;1186;22256;-86
2022/01/03 01:36:26;;;;;;;6.50;2.50;;;;;;;4.35;63.55;100355.76;117409;1185;23547;-86
2022/01/03 01:38:59;;;;;;;5.60;2.70;;;;;;;4.37;63.46;100352.14;117476;1185;22106;-87
2022/01/03 01:41:27;;;;;;;5.20;2.90;;;;;;;4.39;63.51;100348.16;117487;1186;23538;-86
2022/01/03 01:43:58;;;;;;;5.80;2.50;;;;;;;4.41;63.48;100344.88;117478;1186;21857;-86
2022/01/03 01:46:26;;;;;;;5.20;2.90;;;;;;;4.41;63.45;100346.45;117484;1186;21857;-85
2022/01/03 01:48:55;;;;;;;5.00;2.60;;;;;;;4.42;63.50;100334.12;117282;1186;22974;-87
2022/01/03 01:51:24;;;;;;;5.50;2.50;;;;;;;4.43;63.41;100326.65;117481;1183;23528;-86
2022/01/03 01:53:54;;;;;;;5.10;2.50;;;;;;;4.43;63.47;100314.13;117337;1186;23683;-87
2022/01/03 01:56:27;;;;;;;7.00;3.10;;;;;;;4.43;63.58;100295.89;117511;1186;23545;-86
2022/01/03 01:59:08;;;;;;;6.20;3.10;;;;;;;4.44;63.63;100280.27;117421;1186;21984;-87
2022/01/03 02:02:04;;;;;;;6.30;3.20;;;;;;;4.46;63.49;100253.54;117382;1179;21852;-86
2022/01/03 02:04:47;;;;;;;4.80;2.90;;;;;;;4.50;63.49;100235.33;117652;1179;22167;-86
2022/01/03 02:07:35;;;;;;;5.40;3.20;;;;;;;4.53;63.50;100222.34;117433;1184;23794;-86
2022/01/03 02:10:49;;;;;;;9.70;3.90;;;;;;;4.59;63.55;100202.59;117595;1182;22915;-86
2022/01/03 02:13:21;;;;;;;10.10;4.20;;;;;;;4.68;63.84;100188.40;117399;1183;23002;-87
2022/01/03 02:15:57;;;;;;;7.10;3.70;;;;;;;4.72;63.81;100176.27;117347;1182;22324;-85
2022/01/03 02:18:26;;;;;;;6.80;3.70;;;;;;;4.77;63.74;100185.20;117315;1186;21862;-88
2022/01/03 02:20:54;;;;;;;9.20;4.10;;;;;;;4.82;63.60;100187.48;117445;1183;21933;-86
2022/01/03 02:23:22;;;;;;;6.80;4.20;;;;;;;4.86;63.59;100176.57;117150;1188;22378;-86
2022/01/03 02:25:51;;;;;;;9.40;4.80;;;;;;;4.89;63.61;100169.80;117426;1185;23553;-86
2022/01/03 02:28:22;;;;;;;8.10;4.30;;;;;;;4.91;63.71;100160.59;117285;1184;23540;-87
2022/01/03 02:30:52;;;;;;;8.30;4.40;;;;;;;4.95;63.69;100164.82;117441;1184;23545;-86
2022/01/03 02:33:20;;;;;;;8.00;4.00;;;;;;;4.98;63.72;100168.84;117411;1182;21905;-86
2022/01/03 02:35:49;;;;;;;8.50;4.80;;;;;;;5.00;63.51;100167.27;117346;1182;23537;-85
2022/01/03 02:38:17;;;;;;;9.30;4.70;;;;;;;5.01;63.73;100168.16;117336;1182;21882;-86
2022/01/03 02:40:45;;;;;;;9.10;4.10;;;;;;;5.04;63.70;100177.05;117578;1185;21917;-86
2022/01/03 02:43:13;;;;;;;7.80;4.80;;;;;;;5.07;63.85;100193.42;117367;1186;21856;-86
2022/01/03 02:45:42;;;;;;;8.70;4.80;;;;;;;5.13;63.77;100195.71;117313;1182;23551;-85
2022/01/03 02:48:12;;;;;;;8.70;4.50;;;;;;;5.18;63.62;100180.09;117490;1184;23525;-86
2022/01/03 02:50:40;;;;;;;7.80;4.40;;;;;;;5.23;63.68;100162.73;117579;1185;21862;-86
2022/01/03 02:53:08;;;;;;;7.90;4.20;;;;;;;5.25;63.45;100142.21;117588;1184;21886;-86
2022/01/03 02:55:36;;;;;;;8.40;4.50;;;;;;;5.27;63.41;100142.23;117506;1185;23558;-86
2022/01/03 02:58:07;;;;;;;7.10;4.00;;;;;;;5.28;63.63;100136.50;117565;1184;21872;-86
2022/01/03 03:00:45;;;;;;;7.90;3.80;;;;;;;5.30;63.37;100115.10;117514;1185;21863;-87
2022/01/03 03:03:16;;;;;;;9.20;3.90;;;;;;;5.30;63.35;100093.54;117510;1184;21926;-86
2022/01/03 03:05:44;;;;;;;9.90;4.10;;;;;;;5.27;63.43;100089.52;117432;1182;23563;-86
2022/01/03 03:08:12;;;;;;;9.90;5.00;;;;;;;5.26;63.75;100089.34;117373;1182;21900;-87
2022/01/03 03:10:42;;;;;;;7.60;4.10;;;;;;;5.28;63.57;100086.58;117289;1183;22338;-86
2022/01/03 03:13:10;;;;;;;13.70;5.30;;;;;;;5.30;63.61;100076.48;117217;1184;22774;-86
2022/01/03 03:15:38;;;;;;;9.40;4.90;;;;;;;5.35;63.70;100042.91;117331;1184;22291;-86
2022/01/03 03:18:07;;;;;;;8.20;5.20;;;;;;;5.40;63.70;100030.23;117347;1182;23598;-86
2022/01/03 03:20:35;;;;;;;12.30;6.00;;;;;;;5.44;63.55;100028.69;117288;1186;21859;-86
2022/01/03 03:23:05;;;;;;;12.50;6.40;;;;;;;5.48;63.96;100046.61;117052;1184;23552;-86
2022/01/03 03:25:34;;;;;;;11.60;5.60;;;;;;;5.53;63.69;100067.51;117471;1183;21864;-87
2022/01/03 03:28:05;;;;;;;10.70;5.30;;;;;;;5.55;63.91;100087.89;117390;1182;21866;-86
2022/01/03 03:30:38;;;;;;;13.80;6.40;;;;;;;5.55;63.54;100087.02;117395;1185;23570;-86
2022/01/03 03:33:12;;;;;;;11.30;6.70;;;;;;;5.55;63.66;100085.45;117412;1183;21937;-86
2022/01/03 03:35:40;;;;;;;13.10;6.80;;;;;;;5.57;63.65;100079.02;117497;1182;22081;-86
2022/01/03 03:38:09;;;;;;;12.90;7.50;;;;;;;5.57;63.67;100089.80;117375;1186;23488;-86
2022/01/03 03:40:37;;;;;;;15.80;7.50;;;;;;;5.58;63.58;100086.67;117369;1182;23537;-86
2022/01/03 03:43:05;;;;;;;18.00;7.50;;;;;;;5.55;63.75;100064.21;117395;1179;23426;-86
2022/01/03 03:45:34;;;;;;;15.60;8.80;;;;;;;5.52;63.64;100053.94;117584;1183;21967;-86
2022/01/03 03:48:02;;;;;;;15.00;7.70;;;;;;;5.49;63.66;100061.42;117142;1179;21860;-86
2022/01/03 03:50:30;;;;;;;14.00;7.90;;;;;;;5.45;63.64;100055.31;117371;1186;21867;-86
2022/01/03 03:52:58;;;;;;;12.00;7.80;;;;;;;5.43;63.33;100037.72;117454;1179;23587;-86
2022/01/03 03:55:27;;;;;;;18.00;9.50;;;;;;;5.39;63.61;100042.75;117527;1182;22368;-87
2022/01/03 03:57:56;;;;;;;21.10;9.20;;;;;;;5.36;63.48;100041.17;117558;1185;23580;-86
2022/01/03 04:00:24;;;;;;;16.10;8.20;;;;;;;5.33;63.53;100015.94;117591;1182;21917;-86
2022/01/03 04:02:52;;;;;;;17.80;8.20;;;;;;;5.32;63.56;100014.02;117603;1185;21851;-86
2022/01/03 04:05:21;;;;;;;25.50;8.30;;;;;;;5.29;63.69;100015.77;117573;1183;21871;-86
2022/01/03 04:07:50;;;;;;;24.50;8.00;;;;;;;5.29;63.44;100020.29;117587;1182;23581;-86
2022/01/03 04:10:18;;;;;;;34.70;7.60;;;;;;;5.29;63.67;100026.20;117567;1185;22446;-86
2022/01/03 04:12:47;;;;;;;34.40;7.80;;;;;;;5.29;63.60;100019.41;117563;1183;23576;-86
2022/01/03 04:15:16;;;;;;;70.90;8.60;;;;;;;5.29;63.62;100014.36;117403;1186;23921;-86
2022/01/03 04:17:44;;;;;;;37.70;7.20;;;;;;;5.28;63.48;100018.02;117580;1183;21907;-86
2022/01/03 04:20:15;;;;;;;60.50;8.20;;;;;;;5.26;63.72;100018.71;117557;1185;23592;-86
2022/01/03 04:22:44;;;;;;;46.90;7.80;;;;;;;5.24;63.36;100009.65;117572;1182;21872;-86
2022/01/03 04:25:14;;;;;;;53.60;7.40;;;;;;;5.23;63.48;99996.94;117536;1176;22381;-86
2022/01/03 04:27:42;;;;;;;64.40;7.30;;;;;;;5.21;63.43;99980.94;117372;1186;23563;-85
2022/01/03 04:30:11;;;;;;;50.10;7.50;;;;;;;5.19;63.52;99967.89;117338;1186;23833;-86
2022/01/03 04:32:41;;;;;;;54.10;7.80;;;;;;;5.17;63.57;99966.31;117318;1186;21869;-86
2022/01/03 04:35:09;;;;;;;74.50;8.90;;;;;;;5.18;63.49;99976.75;117542;1183;23806;-86
2022/01/03 04:37:38;;;;;;;82.40;9.20;;;;;;;5.17;63.48;99980.58;117594;1179;23570;-86
2022/01/03 04:40:06;;;;;;;65.60;9.80;;;;;;;5.17;63.46;99993.80;117597;1176;23576;-86
2022/01/03 04:42:34;;;;;;;80.90;10.70;;;;;;;5.19;63.38;99998.67;117605;1183;21896;-86
2022/01/03 04:45:02;;;;;;;65.40;9.90;;;;;;;5.18;63.67;100000.92;117472;1185;21856;-86
2022/01/03 04:47:32;;;;;;;50.20;9.00;;;;;;;5.16;63.76;100004.75;117509;1184;22199;-86
2022/01/03 04:50:00;;;;;;;55.10;11.10;;;;;;;5.16;63.72;100002.66;117579;1185;22080;-86
2022/01/03 04:52:29;;;;;;;52.70;11.80;;;;;;;5.16;63.49;99995.70;117635;1179;23808;-86
2022/01/03 04:54:58;;;;;;;59.60;9.30;;;;;;;5.16;63.75;99988.04;117341;1183;22626;-86
2022/01/03 04:57:26;;;;;;;95.80;11.50;;;;;;;5.19;63.79;99977.63;117351;1187;21908;-85
2022/01/03 04:59:54;;;;;;;77.00;11.00;;;;;;;5.19;63.77;99961.79;117290;1184;23485;-85
2022/01/03 05:02:22;;;;;;;82.60;11.90;;;;;;;5.19;63.61;99957.63;117532;1185;21852;-85
2022/01/03 05:04:50;;;;;;;60.90;11.20;;;;;;;5.20;63.75;99953.44;117441;1184;22986;-86
2022/01/03 05:07:23;;;;;;;62.70;12.20;;;;;;;5.22;63.40;99953.64;117284;1181;23539;-86
2022/01/03 05:09:51;;;;;;;38.00;10.40;;;;;;;5.18;63.65;99944.05;117344;1178;22601;-86
2022/01/03 05:12:20;;;;;;;80.70;15.00;;;;;;;5.17;63.85;99941.44;117455;1185;23676;-86
2022/01/03 05:14:48;;;;;;;87.60;13.60;;;;;;;5.24;63.72;99939.02;117305;1185;21875;-86
2022/01/03 05:17:16;;;;;;;60.70;12.20;;;;;;;5.23;63.45;99928.23;117315;1182;22180;-86
2022/01/03 05:19:44;;;;;;;54.70;11.60;;;;;;;5.21;63.73;99922.31;117403;1184;21855;-85
2022/01/03 05:22:12;;;;;;;74.40;13.10;;;;;;;5.19;63.60;99915.70;117290;1183;21869;-84
2022/01/03 05:24:40;;;;;;;63.80;10.70;;;;;;;5.18;63.59;99909.45;117333;1183;23291;-85
2022/01/03 05:27:09;;;;;;;39.30;9.90;;;;;;;5.17;63.54;99914.30;117220;1187;22913;-85
2022/01/03 05:29:37;;;;;;;80.60;11.40;;;;;;;5.16;63.60;99918.64;117438;1185;21857;-85
2022/01/03 05:32:06;;;;;;;77.70;11.00;;;;;;;5.15;63.65;99915.15;117446;1185;21888;-85
2022/01/03 05:34:36;;;;;;;138.90;13.90;;;;;;;5.15;63.51;99906.48;117299;1186;21903;-85
2022/01/03 05:37:04;;;;;;;50.90;11.20;;;;;;;5.15;63.64;99902.82;117270;1178;21854;-86
2022/01/03 05:39:32;;;;;;;90.00;12.50;;;;;;;5.13;63.55;99893.95;117544;1182;22613;-84
2022/01/03 05:42:00;;;;;;;57.20;11.40;;;;;;;5.12;63.65;99877.06;117568;1182;22331;-83
2022/01/03 05:44:28;;;;;;;50.80;11.20;;;;;;;5.12;63.74;99874.81;117288;1186;21855;-85
2022/01/03 05:46:57;;;;;;;58.20;11.40;;;;;;;5.12;63.87;99877.58;117416;1185;22900;-85
2022/01/03 05:49:26;;;;;;;82.90;12.50;;;;;;;5.10;63.57;99877.59;117549;1185;21855;-86
2022/01/03 05:51:54;;;;;;;50.40;11.80;;;;;;;5.10;63.30;99884.36;117434;1176;21858;-85
2022/01/03 05:54:22;;;;;;;64.90;12.10;;;;;;;5.09;63.49;99888.70;117279;1182;21913;-85
2022/01/03 05:56:50;;;;;;;83.90;12.40;;;;;;;5.09;63.58;99877.75;117499;1185;21854;-85
2022/01/03 05:59:18;;;;;;;30.60;9.90;;;;;;;5.08;63.61;99861.77;117485;1183;24154;-85
2022/01/03 06:01:47;;;;;;;129.90;14.10;;;;;;;5.07;63.85;99869.77;117615;1185;21957;-85
2022/01/03 06:04:23;;;;;;;155.50;16.40;;;;;;;5.05;63.46;99883.49;117328;1186;21856;-85
2022/01/03 06:06:58;;;;;;;97.70;14.10;;;;;;;5.06;63.38;99880.55;117412;1185;23455;-85
2022/01/03 06:09:26;;;;;;;59.60;12.70;;;;;;;5.04;63.55;99870.45;117553;1185;21895;-85
2022/01/03 06:11:54;;;;;;;47.70;11.70;;;;;;;5.03;63.84;99866.97;117385;1179;23578;-84
2022/01/03 06:14:22;;;;;;;112.20;16.60;;;;;;;5.02;63.58;99864.71;117393;1185;21918;-85
2022/01/03 06:16:50;;;;;;;69.00;14.80;;;;;;;5.03;63.69;99858.80;117263;1184;21864;-85
2022/01/03 06:19:18;;;;;;;107.00;15.80;;;;;;;5.03;63.66;99861.76;116970;1188;21892;-86
2022/01/03 06:21:46;;;;;;;45.50;12.80;;;;;;;5.05;63.84;99864.19;117334;1184;21919;-86
2022/01/03 06:24:16;;;;;;;30.10;11.90;;;;;;;5.06;63.68;99860.90;117232;1187;21910;-86
2022/01/03 06:26:45;;;;;;;43.60;13.60;;;;;;;5.05;63.41;99849.77;117236;1184;21891;-86
2022/01/03 06:29:13;;;;;;;70.50;16.20;;;;;;;5.06;64.00;99847.33;117309;1186;21869;-85
2022/01/03 06:31:47;;;;;;;63.90;16.40;;;;;;;5.08;64.05;99849.41;117357;1182;23573;-85
2022/01/03 06:34:15;;;;;;;77.00;17.70;;;;;;;5.13;63.49;99846.29;117439;1185;21855;-85
2022/01/03 06:36:43;;;;;;;83.50;18.80;;;;;;;5.16;63.87;99833.41;117343;1185;23618;-85
2022/01/03 06:39:12;;;;;;;48.20;16.60;;;;;;;5.20;63.86;99828.20;117370;1183;23607;-84
2022/01/03 06:41:40;;;;;;;57.50;18.20;;;;;;;5.25;63.83;99827.00;117405;1187;22630;-85
2022/01/03 06:44:08;;;;;;;85.30;22.60;;;;;;;5.29;63.95;99818.30;117577;1185;21857;-84
2022/01/03 06:46:36;;;;;;;74.90;21.70;;;;;;;5.35;63.71;99832.55;117591;1182;22912;-85
2022/01/03 06:49:06;;;;;;;44.30;19.50;;;;;;;5.40;63.81;99840.05;117434;1182;23551;-84
2022/01/03 06:51:35;;;;;;;40.40;18.60;;;;;;;5.44;63.76;99850.84;117413;1187;23622;-85
2022/01/03 06:54:04;;;;;;;55.20;20.00;;;;;;;5.47;64.00;99850.84;117541;1179;23052;-84
2022/01/03 06:56:33;;;;;;;;;;;;;;;5.49;63.93;99845.45;117535;1185;21987;-86
2022/01/03 06:59:02;;;;;;;36.60;19.10;;;;;;;5.50;63.67;99845.96;117392;1186;21845;-86
2022/01/03 07:01:30;;;;;;;62.10;22.10;;;;;;;5.52;63.88;99855.52;117579;1184;22953;-86
2022/01/03 07:03:58;;;;;;;44.00;21.70;;;;;;;5.53;63.60;99855.36;117619;1184;21860;-87
2022/01/03 07:06:28;;;;;;;93.80;44.30;;;;;;;5.54;63.62;99856.92;117595;1185;23551;-85
2022/01/03 07:08:56;;;;;;;92.80;50.10;;;;;;;5.52;63.73;99850.82;117412;1184;21844;-86
2022/01/03 07:11:24;;;;;;;103.20;39.10;;;;;;;5.54;63.90;99850.31;117515;1185;21863;-86
2022/01/03 07:14:04;;;;;;;70.80;29.30;;;;;;;5.55;63.88;99847.52;117582;1182;22206;-86
2022/01/03 07:19:20;;;;;;;48.80;18.40;;;;;;;5.56;63.69;99849.96;117326;1182;23584;-85
2022/01/03 07:21:48;;;;;;;59.50;21.10;;;;;;;5.56;63.49;99843.34;117300;1186;21871;-85
2022/01/03 07:24:15;;;;;;;51.40;19.40;;;;;;;5.53;63.43;99825.95;117298;1185;24344;-86
2022/01/03 07:26:44;;;;;;;40.80;21.40;;;;;;;5.52;63.47;99809.08;117429;1186;23564;-85
2022/01/03 07:29:12;;;;;;;50.50;22.40;;;;;;;5.53;63.72;99805.77;117334;1181;22633;-86
2022/01/03 07:31:40;;;;;;;32.20;18.30;;;;;;;5.57;63.57;99805.05;117324;1186;21874;-85
2022/01/03 07:34:08;;;;;;;52.10;19.60;;;;;;;5.60;63.68;99814.80;117284;1184;21856;-86
2022/01/03 07:36:37;;;;;;;40.30;17.00;;;;;;;5.60;63.75;99825.26;117384;1178;21853;-86
2022/01/03 07:39:06;;;;;;;80.70;19.90;;;;;;;5.60;63.60;99823.68;117297;1182;23542;-87
2022/01/03 07:41:34;;;;;;;43.20;18.80;;;;;;;5.59;63.55;99813.23;117275;1186;22916;-82
2022/01/03 07:44:07;;;;;;;70.50;18.40;;;;;;;5.70;63.23;99807.66;117348;1186;21854;-82
2022/01/03 07:46:36;;;;;;;58.60;16.90;;;;;;;5.67;63.57;99798.95;117522;1182;23544;-83
2022/01/03 07:49:04;;;;;;;45.00;17.80;;;;;;;5.62;63.56;99797.92;117308;1186;22848;-83
2022/01/03 07:51:32;;;;;;;60.10;17.40;;;;;;;5.58;63.57;99802.10;117310;1184;22192;-83
2022/01/03 07:54:00;;;;;;;42.10;16.50;;;;;;;5.52;63.66;99804.20;117440;1182;22271;-83
2022/01/03 07:56:28;;;;;;;49.40;23.40;;;;;;;5.46;63.58;99804.38;117316;1183;22163;-83
2022/01/03 07:58:56;;;;;;;25.60;15.50;;;;;;;5.43;63.67;99804.73;117284;1184;23656;-83
2022/01/03 08:01:24;;;;;;;56.00;20.40;;;;;;;5.41;63.76;99798.64;117315;1186;21919;-83
2022/01/03 08:03:53;;;;;;;45.20;17.80;;;;;;;5.38;63.60;99794.46;117497;1184;23534;-82
2022/01/03 08:06:41;;;;;;;69.30;19.70;;;;;;;5.37;63.69;99787.51;117400;1183;21962;-84
2022/01/03 08:09:09;;;;;;;49.10;21.30;;;;;;;5.37;63.65;99776.54;117240;1186;21855;-86
2022/01/03 08:11:37;;;;;;;37.60;18.70;;;;;;;5.41;63.64;99784.02;117487;1182;23701;-86
2022/01/03 08:14:05;;;;;;;32.10;18.60;;;;;;;5.43;63.85;99798.11;117508;1182;23575;-85
2022/01/03 08:16:34;;;;;;;47.20;18.40;;;;;;;5.45;63.78;99804.03;117343;1186;23554;-86
2022/01/03 08:19:02;;;;;;;47.00;18.70;;;;;;;5.47;63.64;99802.12;117291;1184;21864;-86
2022/01/03 08:21:48;;;;;;;32.30;18.80;;;;;;;5.46;63.66;99796.38;117478;1184;21857;-83
2022/01/03 08:24:17;;;;;;;34.80;18.10;;;;;;;5.50;63.79;99805.94;117578;1182;21892;-86
2022/01/03 08:26:45;;;;;;;53.00;20.20;;;;;;;5.54;63.64;99809.94;117341;1184;23531;-86
2022/01/03 08:29:20;;;;;;;39.80;21.20;;;;;;;5.58;63.87;99810.63;117245;1187;23588;-86
2022/01/03 08:31:48;;;;;;;43.20;25.50;;;;;;;5.59;63.75;99804.52;117586;1184;21848;-86
2022/01/03 08:34:17;;;;;;;71.20;38.30;;;;;;;5.59;63.61;99794.44;117450;1176;21864;-86
2022/01/03 08:36:44;;;;;;;54.00;22.30;;;;;;;5.59;63.54;99776.86;117307;1182;21972;-87
2022/01/03 08:39:13;;;;;;;36.70;20.40;;;;;;;5.56;63.45;99770.77;117527;1185;21853;-87
2022/01/03 08:41:41;;;;;;;39.20;20.70;;;;;;;5.56;63.59;99767.81;117581;1184;21897;-87
2022/01/03 08:44:09;;;;;;;30.10;16.90;;;;;;;5.55;63.49;99761.72;117608;1185;21854;-86
2022/01/03 08:46:38;;;;;;;39.40;19.00;;;;;;;5.56;63.55;99746.92;117374;1181;23736;-87
2022/01/03 08:49:06;;;;;;;40.90;21.80;;;;;;;5.57;63.52;99739.98;117579;1184;21851;-86
2022/01/03 08:51:35;;;;;;;32.60;19.90;;;;;;;5.57;63.82;99746.05;117542;1185;21899;-85
2022/01/03 08:54:03;;;;;;;36.40;21.00;;;;;;;5.56;63.39;99743.62;117350;1186;21869;-86
2022/01/03 08:56:31;;;;;;;33.00;18.90;;;;;;;5.57;63.71;99738.23;117278;1186;22084;-86
2022/01/03 08:58:59;;;;;;;31.10;18.40;;;;;;;5.59;63.79;99735.95;117591;1184;21915;-86
2022/01/03 09:01:26;;;;;;;42.60;22.00;;;;;;;5.62;63.65;99734.21;117616;1185;21871;-84
2022/01/03 09:03:55;;;;;;;44.60;23.00;;;;;;;5.61;63.85;99728.48;117519;1186;21860;-85
2022/01/03 09:06:23;;;;;;;39.60;21.90;;;;;;;5.65;63.80;99728.46;117479;1178;23575;-85
2022/01/03 09:08:51;;;;;;;38.80;21.70;;;;;;;5.70;63.73;99731.06;117458;1184;23549;-85
2022/01/03 09:11:19;;;;;;;37.40;21.10;;;;;;;5.74;63.75;99728.79;117462;1182;22910;-84
2022/01/03 09:13:47;;;;;;;37.00;21.10;;;;;;;5.77;63.77;99732.25;117437;1186;24044;-85
2022/01/03 09:16:16;;;;;;;38.40;20.20;;;;;;;5.81;63.71;99728.59;117386;1186;23541;-85
2022/01/03 09:18:44;;;;;;;38.80;21.50;;;;;;;5.84;63.60;99729.98;117299;1186;21871;-86
2022/01/03 09:21:13;;;;;;;42.60;23.40;;;;;;;5.88;63.91;99727.70;117333;1186;23528;-86
2022/01/03 09:23:46;;;;;;;39.50;21.40;;;;;;;5.91;63.92;99720.73;117506;1184;23003;-87
2022/01/03 09:29:01;;;;;;;33.60;19.20;;;;;;;6.04;64.29;99715.29;117309;1187;21893;-86
2022/01/03 09:31:35;;;;;;;38.00;21.30;;;;;;;6.10;63.93;99720.33;117398;1182;21888;-85
2022/01/03 09:34:04;;;;;;;32.00;19.70;;;;;;;6.16;64.16;99714.90;117405;1184;21899;-86
2022/01/03 09:36:33;;;;;;;40.10;22.40;;;;;;;6.22;64.13;99706.33;117431;1185;23568;-85
2022/01/03 09:39:02;;;;;;;43.10;23.10;;;;;;;6.28;63.85;99689.40;117307;1189;21870;-85
2022/01/03 09:41:33;;;;;;;37.10;22.20;;;;;;;6.35;63.97;99676.64;117363;1182;22897;-85
2022/01/03 09:44:05;;;;;;;41.20;23.80;;;;;;;6.42;64.01;99680.42;117433;1186;22914;-85
2022/01/03 09:46:41;;;;;;;38.40;21.80;;;;;;;6.46;64.14;99681.09;117373;1187;23544;-86
2022/01/03 09:49:12;;;;;;;35.90;21.60;;;;;;;6.54;63.86;99672.67;117378;1186;21980;-86
2022/01/03 09:51:44;;;;;;;41.50;24.00;;;;;;;6.61;63.92;99673.52;117416;1186;21864;-85
2022/01/03 09:54:15;;;;;;;41.40;25.20;;;;;;;6.66;63.97;99683.40;117418;1186;21860;-86
2022/01/03 09:56:44;;;;;;;44.50;24.60;;;;;;;6.68;63.97;99686.00;117442;1186;23573;-86
2022/01/03 09:59:13;;;;;;;35.30;21.30;;;;;;;6.69;63.80;99683.90;117380;1186;21859;-87
2022/01/03 10:01:42;;;;;;;45.70;26.40;;;;;;;6.68;63.77;99676.23;117533;1183;23583;-85
2022/01/03 10:04:14;;;;;;;37.70;23.10;;;;;;;6.69;63.87;99668.90;117350;1186;23561;-86
2022/01/03 10:06:44;;;;;;;37.40;23.30;;;;;;;6.70;63.97;99660.52;117384;1183;23560;-86
2022/01/03 10:09:32;;;;;;;34.50;20.20;;;;;;;6.75;63.70;99655.61;117406;1186;22306;-86
2022/01/03 10:12:01;;;;;;;38.20;22.50;;;;;;;6.80;63.86;99653.13;117457;1185;23303;-86
2022/01/03 10:14:48;;;;;;;34.90;20.90;;;;;;;6.84;63.85;99651.17;117586;1182;23834;-85
2022/01/03 10:17:16;;;;;;;38.80;23.80;;;;;;;6.86;64.08;99650.28;117465;1185;21861;-85
2022/01/03 10:20:02;;;;;;;43.10;25.40;;;;;;;6.90;63.82;99653.38;117401;1181;23557;-86
2022/01/03 10:22:32;;;;;;;41.30;24.40;;;;;;;6.94;63.99;99650.39;117423;1186;23536;-86
2022/01/03 10:25:11;;;;;;;45.80;26.90;;;;;;;6.95;63.93;99641.66;117411;1182;22096;-86
2022/01/03 10:27:45;;;;;;;36.40;21.80;;;;;;;6.98;64.13;99639.54;117486;1184;21913;-86
2022/01/03 10:30:13;;;;;;;44.20;26.20;;;;;;;7.03;63.99;99644.38;117628;1184;21869;-87
2022/01/03 10:32:50;;;;;;;40.10;27.20;;;;;;;7.08;64.02;99643.45;117452;1186;22248;-86
2022/01/03 10:35:19;;;;;;;40.80;25.70;;;;;;;7.11;64.31;99639.58;117360;1179;21856;-86
2022/01/03 10:37:49;;;;;;;35.10;24.00;;;;;;;7.17;64.13;99633.96;117459;1185;23542;-86
2022/01/03 10:40:30;;;;;;;35.40;22.30;;;;;;;7.23;64.19;99634.60;117639;1182;22913;-86
2022/01/03 10:43:22;;;;;;;38.70;24.50;;;;;;;7.28;64.26;99628.77;117363;1179;23438;-87
2022/01/03 10:45:51;;;;;;;38.30;24.40;;;;;;;7.34;64.30;99627.13;117417;1184;23525;-87
2022/01/03 10:48:30;;;;;;;38.50;24.20;;;;;;;7.40;64.45;99621.64;117435;1186;21867;-87
2022/01/03 10:51:00;;;;;;;32.80;21.80;;;;;;;7.48;64.38;99620.17;117392;1186;21865;-86
2022/01/03 10:53:44;;;;;;;35.00;21.70;;;;;;;7.53;64.55;99622.90;117454;1186;22980;-86
2022/01/03 10:56:28;;;;;;;33.10;22.00;;;;;;;7.61;64.36;99628.57;117343;1186;23546;-86
2022/01/03 10:59:22;;;;;;;32.70;20.90;;;;;;;7.66;64.50;99622.05;117384;1187;23440;-87
2022/01/03 11:02:03;;;;;;;49.30;30.80;;;;;;;7.71;64.33;99617.27;117638;1182;21897;-86
2022/01/03 11:04:57;;;;;;;36.20;23.20;;;;;;;7.79;64.44;99613.15;117615;1183;23528;-85
2022/01/03 11:13:04;;;;;;;33.00;22.00;;;;;;;7.97;64.38;99612.73;117448;1186;21842;-87
2022/01/03 11:16:00;;;;;;;26.80;20.20;;;;;;;8.07;64.40;99615.58;117616;1182;23553;-87
2022/01/03 11:18:28;;;;;;;27.80;18.50;;;;;;;8.16;64.58;99610.20;117478;1186;23574;-86
2022/01/03 11:21:14;;;;;;;24.10;17.80;;;;;;;8.23;64.51;99604.67;117569;1185;21850;-88
2022/01/03 11:24:04;;;;;;;26.00;17.40;;;;;;;8.32;64.39;99601.39;117392;1181;23634;-85
2022/01/03 11:26:40;;;;;;;24.10;16.90;;;;;;;8.40;64.48;99601.44;117652;1184;23000;-86
2022/01/03 11:29:08;;;;;;;20.60;15.10;;;;;;;8.44;64.51;99603.98;117398;1186;21859;-87
2022/01/03 11:31:39;;;;;;;22.60;15.30;;;;;;;8.49;64.54;99602.02;117693;1184;22812;-86
2022/01/03 11:34:11;;;;;;;19.80;14.80;;;;;;;8.51;64.44;99600.95;117328;1188;21943;-86
2022/01/03 11:37:05;;;;;;;20.90;15.10;;;;;;;8.55;64.48;99611.20;117637;1181;21871;-87
2022/01/03 11:39:36;;;;;;;17.60;13.50;;;;;;;8.59;64.46;99612.36;117633;1184;23345;-86
2022/01/03 11:42:05;;;;;;;20.40;14.60;;;;;;;8.69;64.43;99609.74;117385;1184;23565;-86
2022/01/03 11:44:33;;;;;;;19.90;14.30;;;;;;;8.77;64.57;99608.23;117348;1186;21851;-85
2022/01/03 11:47:02;;;;;;;19.80;14.00;;;;;;;8.89;64.62;99607.29;117384;1184;23541;-86
2022/01/03 11:49:31;;;;;;;18.70;13.40;;;;;;;9.02;64.76;99598.33;117421;1186;21863;-88
2022/01/03 11:52:01;;;;;;;16.90;12.80;;;;;;;9.18;64.79;99591.04;117370;1184;21880;-87